createdAt,value
2022-10-29T00:02:14.700Z,69.00
2022-10-29T00:04:41.293Z,48.40
2022-10-29T00:07:07.616Z,26.10
2022-10-29T00:09:34.923Z,24.60
2022-10-29T00:12:01.322Z,41.70
2022-10-29T00:14:28.048Z,32.60
2022-10-29T00:16:56.572Z,31.80
2022-10-29T00:19:23.167Z,353.30
2022-10-29T00:21:50.493Z,459.50
2022-10-29T00:24:17.076Z,185.30
2022-10-29T00:26:43.471Z,36.70
2022-10-29T00:29:09.809Z,28.60
2022-10-29T00:31:36.524Z,42.40
2022-10-29T00:34:03.328Z,20.90
2022-10-29T00:36:29.789Z,27.90
2022-10-29T00:38:56.432Z,33.60
2022-10-29T00:41:25.949Z,22.00
2022-10-29T00:44:12.170Z,21.70
2022-10-29T00:46:40.687Z,24.20
2022-10-29T00:49:07.265Z,21.60
2022-10-29T00:51:34.241Z,21.00
2022-10-29T00:54:04.510Z,22.80
2022-10-29T00:56:34.657Z,20.60
2022-10-29T00:59:01.926Z,24.00
2022-10-29T01:01:28.488Z,22.40
2022-10-29T01:03:55.758Z,24.10
2022-10-29T01:06:22.895Z,26.60
2022-10-29T01:08:49.205Z,22.60
2022-10-29T01:11:26.069Z,29.50
2022-10-29T01:14:11.348Z,29.90
2022-10-29T01:16:52.228Z,28.50
2022-10-29T01:19:33.906Z,33.90
2022-10-29T01:22:10.950Z,28.10
2022-10-29T01:25:25.132Z,26.30
2022-10-29T01:28:13.190Z,27.20
2022-10-29T01:31:02.971Z,23.50
2022-10-29T01:33:54.896Z,27.00
2022-10-29T01:36:24.209Z,24.10
2022-10-29T01:39:03.070Z,26.50
2022-10-29T01:41:39.782Z,23.70
2022-10-29T01:44:32.763Z,18.30
2022-10-29T01:47:02.299Z,28.40
2022-10-29T01:49:39.614Z,19.10
2022-10-29T01:52:10.584Z,21.60
2022-10-29T01:54:45.181Z,22.10
2022-10-29T01:57:28.040Z,26.70
2022-10-29T01:59:59.603Z,22.90
2022-10-29T02:02:37.915Z,18.80
2022-10-29T02:05:22.964Z,21.40
2022-10-29T02:07:53.844Z,17.60
2022-10-29T02:10:39.646Z,20.90
2022-10-29T02:13:09.491Z,21.10
2022-10-29T02:15:47.933Z,19.30
2022-10-29T02:18:15.373Z,20.00
2022-10-29T02:20:43.919Z,18.60
2022-10-29T02:23:10.365Z,17.20
2022-10-29T02:25:36.756Z,20.40
2022-10-29T02:28:03.452Z,13.50
2022-10-29T02:30:29.899Z,15.10
2022-10-29T02:32:57.421Z,18.00
2022-10-29T02:35:24.158Z,13.80
2022-10-29T02:37:50.571Z,17.70
2022-10-29T02:40:17.018Z,12.00
2022-10-29T02:42:43.454Z,18.40
2022-10-29T02:45:10.137Z,15.60
2022-10-29T02:47:36.477Z,16.20
2022-10-29T02:50:03.119Z,17.80
2022-10-29T02:52:29.625Z,16.10
2022-10-29T02:54:55.948Z,14.90
2022-10-29T02:57:22.278Z,15.80
2022-10-29T02:59:48.723Z,20.60
2022-10-29T03:02:15.760Z,21.70
2022-10-29T03:04:43.694Z,29.20
2022-10-29T03:07:10.389Z,23.70
2022-10-29T03:09:37.107Z,21.70
2022-10-29T03:12:03.459Z,26.90
2022-10-29T03:14:29.797Z,26.60
2022-10-29T03:16:56.120Z,23.30
2022-10-29T03:19:22.594Z,24.40
2022-10-29T03:21:49.001Z,23.00
2022-10-29T03:24:15.332Z,25.50
2022-10-29T03:26:41.789Z,19.70
2022-10-29T03:29:08.113Z,20.00
2022-10-29T03:31:34.504Z,21.70
2022-10-29T03:34:00.939Z,15.40
2022-10-29T03:36:27.316Z,17.80
2022-10-29T03:38:53.759Z,16.00
2022-10-29T03:41:20.069Z,18.30
2022-10-29T03:43:46.411Z,19.40
2022-10-29T03:46:12.939Z,15.20
2022-10-29T03:48:39.297Z,15.40
2022-10-29T03:51:07.101Z,17.30
2022-10-29T03:53:35.483Z,19.70
2022-10-29T03:56:04.946Z,14.80
2022-10-29T03:58:31.676Z,15.60
2022-10-29T04:01:02.917Z,16.90
2022-10-29T04:03:32.405Z,16.90
2022-10-29T04:06:01.334Z,18.10
2022-10-29T04:08:28.605Z,13.40
2022-10-29T04:10:54.921Z,17.50
2022-10-29T04:13:21.332Z,16.90
2022-10-29T04:15:47.944Z,16.20
2022-10-29T04:18:14.284Z,16.80
2022-10-29T04:21:29.236Z,17.80
2022-10-29T04:29:01.847Z,14.80
2022-10-29T04:31:28.262Z,19.50
2022-10-29T04:33:54.917Z,20.70
2022-10-29T04:36:22.193Z,19.10
2022-10-29T04:38:50.118Z,19.10
2022-10-29T04:41:17.207Z,21.30
2022-10-29T04:43:44.008Z,21.90
2022-10-29T04:46:12.761Z,19.20
2022-10-29T04:48:42.609Z,18.80
2022-10-29T04:51:25.511Z,23.10
2022-10-29T04:53:52.365Z,19.10
2022-10-29T04:56:19.544Z,16.60
2022-10-29T04:58:45.904Z,18.70
2022-10-29T05:01:12.999Z,16.80
2022-10-29T05:03:39.761Z,21.90
2022-10-29T05:06:06.815Z,18.60
2022-10-29T05:08:33.635Z,23.60
2022-10-29T05:11:04.744Z,21.60
2022-10-29T05:13:32.542Z,14.60
2022-10-29T05:15:59.125Z,20.40
2022-10-29T05:18:25.791Z,19.00
2022-10-29T05:20:53.760Z,16.20
2022-10-29T05:23:20.420Z,17.50
2022-10-29T05:25:48.540Z,18.80
2022-10-29T05:28:19.934Z,19.60
2022-10-29T05:30:48.253Z,17.30
2022-10-29T05:33:17.499Z,22.20
2022-10-29T05:35:44.171Z,16.80
2022-10-29T05:38:12.235Z,18.40
2022-10-29T05:40:39.970Z,20.00
2022-10-29T05:43:06.532Z,18.60
2022-10-29T05:45:33.442Z,19.20
2022-10-29T05:48:01.845Z,22.40
2022-10-29T05:50:29.724Z,13.90
2022-10-29T05:52:58.347Z,23.80
2022-10-29T05:55:26.525Z,24.00
2022-10-29T05:58:00.902Z,18.00
2022-10-29T06:00:29.914Z,18.70
2022-10-29T06:02:57.135Z,18.60
2022-10-29T06:05:26.934Z,20.70
2022-10-29T06:07:58.815Z,24.20
2022-10-29T06:10:29.010Z,17.90
2022-10-29T06:12:56.598Z,17.20
2022-10-29T06:15:24.761Z,14.90
2022-10-29T06:17:51.980Z,20.80
2022-10-29T06:20:21.565Z,20.90
2022-10-29T06:22:57.519Z,23.20
2022-10-29T06:25:27.555Z,25.50
2022-10-29T06:27:59.792Z,21.70
2022-10-29T06:30:29.118Z,22.20
2022-10-29T06:32:56.643Z,21.40
2022-10-29T06:35:23.526Z,17.80
2022-10-29T06:37:50.067Z,22.10
2022-10-29T06:40:16.804Z,20.40
2022-10-29T06:42:43.392Z,18.40
2022-10-29T06:45:11.233Z,19.30
2022-10-29T06:47:39.401Z,18.60
2022-10-29T06:50:06.228Z,23.50
2022-10-29T06:52:34.403Z,22.60
2022-10-29T06:55:01.776Z,24.30
2022-10-29T06:57:29.193Z,23.60
2022-10-29T06:59:55.958Z,23.60
2022-10-29T07:02:23.639Z,20.10
2022-10-29T07:04:50.049Z,18.40
2022-10-29T07:07:17.120Z,21.80
2022-10-29T07:09:43.589Z,20.90
2022-10-29T07:12:10.799Z,22.20
2022-10-29T07:14:37.362Z,26.30
2022-10-29T07:17:03.784Z,18.70
2022-10-29T07:19:31.339Z,22.10
2022-10-29T07:21:58.263Z,18.40
2022-10-29T07:24:24.838Z,24.60
2022-10-29T07:26:51.163Z,17.30
2022-10-29T07:29:17.696Z,17.50
2022-10-29T07:31:44.092Z,17.20
2022-10-29T07:34:11.204Z,22.90
2022-10-29T07:36:38.171Z,21.00
2022-10-29T07:39:06.796Z,20.00
2022-10-29T07:41:33.416Z,17.70
2022-10-29T07:44:00.955Z,23.60
2022-10-29T07:46:30.538Z,19.70
2022-10-29T07:48:57.266Z,27.00
2022-10-29T07:51:24.199Z,22.70
2022-10-29T07:53:56.156Z,18.80
2022-10-29T07:56:23.696Z,28.50
2022-10-29T07:58:53.992Z,23.10
2022-10-29T08:01:22.553Z,19.20
2022-10-29T08:03:50.417Z,24.90
2022-10-29T08:06:18.963Z,23.10
2022-10-29T08:08:45.853Z,19.40
2022-10-29T08:11:15.051Z,22.40
2022-10-29T08:13:48.447Z,23.50
2022-10-29T08:16:15.160Z,24.60
2022-10-29T08:18:54.910Z,25.40
2022-10-29T08:21:34.460Z,20.20
2022-10-29T08:24:04.178Z,24.00
2022-10-29T08:26:35.352Z,20.00
2022-10-29T08:29:02.980Z,23.10
2022-10-29T08:31:30.073Z,20.90
2022-10-29T08:33:56.725Z,22.60
2022-10-29T08:36:23.116Z,22.60
2022-10-29T08:38:49.641Z,22.30
2022-10-29T08:41:28.224Z,24.40
2022-10-29T08:44:18.965Z,27.00
2022-10-29T08:47:05.198Z,25.50
2022-10-29T08:49:47.184Z,23.20
2022-10-29T08:52:23.734Z,25.20
2022-10-29T08:55:05.538Z,26.10
2022-10-29T08:57:38.293Z,22.50
2022-10-29T09:00:15.280Z,26.00
2022-10-29T09:02:42.254Z,21.80
2022-10-29T09:05:14.447Z,36.40
2022-10-29T09:08:02.245Z,24.80
2022-10-29T09:10:46.015Z,26.40
2022-10-29T09:13:39.511Z,29.10
2022-10-29T09:16:30.666Z,25.80
2022-10-29T09:19:32.365Z,29.90
2022-10-29T09:22:50.769Z,23.10
2022-10-29T09:25:30.456Z,26.10
2022-10-29T09:28:07.173Z,26.20
2022-10-29T09:30:42.806Z,24.40
2022-10-29T09:33:16.484Z,25.90
2022-10-29T09:35:50.917Z,29.50
2022-10-29T09:38:40.022Z,31.60
2022-10-29T09:41:11.575Z,24.20
2022-10-29T09:43:38.671Z,25.60
2022-10-29T09:46:11.667Z,22.90
2022-10-29T09:49:02.689Z,21.00
2022-10-29T09:51:46.021Z,23.30
2022-10-29T09:54:12.814Z,24.80
2022-10-29T09:56:43.002Z,23.20
2022-10-29T09:59:16.908Z,22.70
2022-10-29T10:01:45.757Z,19.80
2022-10-29T10:04:24.113Z,24.40
2022-10-29T10:07:20.211Z,21.90
2022-10-29T10:10:01.878Z,19.70
2022-10-29T10:12:37.770Z,17.00
2022-10-29T10:15:23.479Z,17.30
2022-10-29T10:18:03.342Z,24.80
2022-10-29T10:20:37.000Z,27.30
2022-10-29T10:23:27.493Z,19.80
2022-10-29T10:26:02.133Z,19.00
2022-10-29T10:28:35.908Z,21.80
2022-10-29T10:31:20.714Z,19.90
2022-10-29T10:33:53.568Z,19.20
2022-10-29T10:36:25.162Z,22.10
2022-10-29T10:38:59.999Z,21.80
2022-10-29T10:41:33.104Z,18.10
2022-10-29T10:44:03.823Z,19.80
2022-10-29T10:46:38.377Z,15.40
2022-10-29T10:49:16.638Z,14.90
2022-10-29T10:51:48.210Z,19.60
2022-10-29T10:54:45.928Z,17.90
2022-10-29T10:57:14.329Z,20.40
2022-10-29T10:59:43.986Z,20.60
2022-10-29T11:02:39.133Z,20.90
2022-10-29T11:05:20.999Z,18.90
2022-10-29T11:08:20.030Z,19.40
2022-10-29T11:10:52.554Z,17.60
2022-10-29T11:13:26.241Z,22.10
2022-10-29T11:16:13.041Z,18.50
2022-10-29T11:18:48.582Z,18.50
2022-10-29T11:21:32.375Z,19.50
2022-10-29T11:24:12.612Z,18.30
2022-10-29T11:26:44.697Z,14.90
2022-10-29T11:29:41.039Z,16.70
2022-10-29T11:32:20.701Z,17.80
2022-10-29T11:35:11.003Z,17.10
2022-10-29T11:38:00.928Z,15.20
2022-10-29T11:40:43.214Z,21.70
2022-10-29T11:43:17.217Z,20.60
2022-10-29T11:46:02.430Z,19.10
2022-10-29T11:48:52.751Z,21.00
2022-10-29T11:51:42.227Z,17.10
2022-10-29T11:54:33.760Z,17.60
2022-10-29T11:57:13.746Z,22.70
2022-10-29T12:00:25.572Z,25.90
2022-10-29T12:03:40.573Z,20.20
2022-10-29T12:06:16.155Z,16.50
2022-10-29T12:09:23.512Z,21.00
2022-10-29T12:11:59.287Z,19.00
2022-10-29T12:14:46.237Z,20.10
2022-10-29T12:17:13.652Z,19.70
2022-10-29T12:20:22.154Z,19.90
2022-10-29T12:23:15.079Z,20.10
2022-10-29T12:26:02.512Z,22.70
2022-10-29T12:28:56.325Z,21.50
2022-10-29T12:32:10.795Z,24.90
2022-10-29T12:34:52.333Z,18.70
2022-10-29T12:37:36.036Z,21.30
2022-10-29T12:40:15.729Z,18.20
2022-10-29T12:42:49.364Z,16.40
2022-10-29T12:45:48.074Z,19.30
2022-10-29T12:48:39.314Z,19.90
2022-10-29T12:51:37.307Z,15.10
2022-10-29T12:54:16.466Z,19.10
2022-10-29T12:56:47.811Z,16.20
2022-10-29T12:59:26.115Z,20.80
2022-10-29T13:05:12.057Z,19.50
2022-10-29T13:07:47.699Z,16.30
2022-10-29T13:10:21.351Z,19.60
2022-10-29T13:13:20.751Z,19.90
2022-10-29T13:16:02.219Z,14.60
2022-10-29T13:18:44.108Z,18.70
2022-10-29T13:21:11.281Z,20.30
2022-10-29T13:23:38.681Z,18.80
2022-10-29T13:26:08.887Z,19.60
2022-10-29T13:28:35.346Z,15.20
2022-10-29T13:31:06.049Z,21.70
2022-10-29T13:33:32.605Z,18.40
2022-10-29T13:36:27.046Z,16.80
2022-10-29T13:39:05.909Z,24.00
2022-10-29T13:41:43.897Z,22.00
2022-10-29T13:44:23.738Z,19.10
2022-10-29T13:47:17.674Z,17.90
2022-10-29T13:49:45.883Z,17.80
2022-10-29T13:52:21.403Z,21.70
2022-10-29T13:54:57.317Z,20.30
2022-10-29T13:57:39.631Z,19.40
2022-10-29T14:00:12.508Z,18.00
2022-10-29T14:03:02.099Z,17.60
2022-10-29T14:05:33.614Z,18.30
2022-10-29T14:08:12.595Z,19.80
2022-10-29T14:10:39.618Z,16.00
2022-10-29T14:13:30.694Z,20.20
2022-10-29T14:16:07.161Z,20.30
2022-10-29T14:18:37.324Z,19.30
2022-10-29T14:21:07.133Z,18.00
2022-10-29T14:23:33.951Z,16.70
2022-10-29T14:26:03.176Z,17.60
2022-10-29T14:28:33.123Z,20.50
2022-10-29T14:31:02.890Z,21.10
2022-10-29T14:33:35.832Z,20.60
2022-10-29T14:36:20.129Z,18.30
2022-10-29T14:38:54.933Z,20.40
2022-10-29T14:41:23.532Z,25.70
2022-10-29T14:44:01.438Z,18.50
2022-10-29T14:46:32.044Z,25.20
2022-10-29T14:49:20.554Z,21.60
2022-10-29T14:51:54.701Z,21.40
2022-10-29T14:54:31.537Z,18.00
2022-10-29T14:57:13.278Z,23.10
2022-10-29T14:59:46.894Z,22.30
2022-10-29T15:05:07.070Z,31.40
2022-10-29T15:07:36.165Z,22.50
2022-10-29T15:10:18.282Z,20.60
2022-10-29T15:12:46.711Z,24.00
2022-10-29T15:15:16.417Z,25.10
2022-10-29T15:17:51.754Z,19.70
2022-10-29T15:20:32.327Z,21.00
2022-10-29T15:23:00.655Z,25.10
2022-10-29T15:25:35.357Z,23.40
2022-10-29T15:28:10.200Z,24.80
2022-10-29T15:30:39.343Z,26.60
2022-10-29T15:33:17.495Z,21.50
2022-10-29T15:35:51.482Z,26.60
2022-10-29T15:38:32.752Z,25.70
2022-10-29T15:41:08.263Z,25.60
2022-10-29T15:43:52.238Z,27.60
2022-10-29T15:46:23.495Z,23.20
2022-10-29T15:48:54.107Z,26.30
2022-10-29T15:51:32.108Z,26.90
2022-10-29T15:54:03.152Z,25.30
2022-10-29T15:56:31.440Z,26.20
2022-10-29T15:59:00.238Z,22.70
2022-10-29T16:01:28.868Z,25.30
2022-10-29T16:03:56.973Z,24.20
2022-10-29T16:06:23.898Z,21.60
2022-10-29T16:08:56.050Z,37.50
2022-10-29T16:11:24.993Z,21.70
2022-10-29T16:13:55.548Z,21.60
2022-10-29T16:16:25.325Z,21.70
2022-10-29T16:18:52.950Z,22.20
2022-10-29T16:21:22.608Z,25.30
2022-10-29T16:23:50.236Z,22.50
2022-10-29T16:26:22.437Z,24.50
2022-10-29T16:28:51.385Z,34.00
2022-10-29T16:31:21.478Z,36.40
2022-10-29T16:33:50.429Z,21.90
2022-10-29T16:36:17.937Z,28.60
2022-10-29T16:38:45.540Z,25.10
2022-10-29T16:41:14.537Z,22.30
2022-10-29T16:43:42.704Z,27.80
2022-10-29T16:46:12.028Z,26.40
2022-10-29T16:48:40.016Z,28.60
2022-10-29T16:51:07.368Z,27.20
2022-10-29T16:53:34.630Z,27.70
2022-10-29T16:56:01.872Z,24.40
2022-10-29T16:58:33.746Z,43.50
2022-10-29T17:01:09.966Z,31.60
2022-10-29T17:03:38.607Z,38.80
2022-10-29T17:06:08.295Z,42.80
2022-10-29T17:08:36.828Z,43.00
2022-10-29T17:11:06.531Z,46.80
2022-10-29T17:13:35.541Z,53.20
2022-10-29T17:16:13.984Z,85.70
2022-10-29T17:18:40.851Z,42.00
2022-10-29T17:21:08.667Z,36.60
2022-10-29T17:23:36.596Z,45.80
2022-10-29T17:26:04.464Z,38.70
2022-10-29T17:28:35.144Z,37.00
2022-10-29T17:31:13.389Z,50.90
2022-10-29T17:33:42.380Z,67.20
2022-10-29T17:36:18.826Z,60.50
2022-10-29T17:38:49.586Z,53.90
2022-10-29T17:41:17.709Z,65.10
2022-10-29T17:43:45.384Z,53.50
2022-10-29T17:46:18.242Z,52.50
2022-10-29T17:48:46.271Z,46.10
2022-10-29T17:51:16.357Z,46.80
2022-10-29T17:53:44.563Z,43.80
2022-10-29T17:56:15.902Z,42.50
2022-10-29T17:58:44.415Z,38.90
2022-10-29T18:01:13.399Z,42.60
2022-10-29T18:03:42.160Z,55.10
2022-10-29T18:06:13.209Z,41.60
2022-10-29T18:08:42.533Z,53.10
2022-10-29T18:11:18.316Z,82.30
2022-10-29T18:13:50.377Z,70.70
2022-10-29T18:16:23.422Z,67.80
2022-10-29T18:19:02.258Z,83.80
2022-10-29T18:21:31.632Z,67.50
2022-10-29T18:23:59.861Z,72.50
2022-10-29T18:26:33.364Z,56.00
2022-10-29T18:29:07.930Z,57.00
2022-10-29T18:31:37.225Z,56.50
2022-10-29T18:34:06.987Z,52.80
2022-10-29T18:36:38.725Z,64.60
2022-10-29T18:39:06.570Z,71.00
2022-10-29T18:41:34.422Z,66.10
2022-10-29T18:44:01.765Z,71.00
2022-10-29T18:46:29.088Z,69.30
2022-10-29T18:48:56.659Z,86.60
2022-10-29T18:51:30.021Z,67.30
2022-10-29T18:53:59.482Z,65.50
2022-10-29T18:56:29.469Z,63.40
2022-10-29T18:58:59.172Z,60.70
2022-10-29T19:01:33.909Z,58.80
2022-10-29T19:04:04.779Z,55.50
2022-10-29T19:06:35.065Z,57.10
2022-10-29T19:09:05.953Z,56.50
2022-10-29T19:11:33.941Z,57.20
2022-10-29T19:14:05.238Z,62.50
2022-10-29T19:16:34.759Z,63.00
2022-10-29T19:21:49.628Z,57.30
2022-10-29T19:24:18.730Z,67.20
2022-10-29T19:26:45.665Z,59.10
2022-10-29T19:29:13.693Z,69.20
2022-10-29T19:31:46.049Z,62.70
2022-10-29T19:34:13.835Z,72.30
2022-10-29T19:36:41.217Z,71.00
2022-10-29T19:39:08.841Z,69.80
2022-10-29T19:41:36.152Z,80.00
2022-10-29T19:44:05.644Z,76.00
2022-10-29T19:46:33.610Z,82.70
2022-10-29T19:49:01.353Z,87.80
2022-10-29T19:51:28.957Z,72.20
2022-10-29T19:53:58.575Z,75.00
2022-10-29T19:56:28.266Z,76.90
2022-10-29T19:58:56.703Z,62.70
2022-10-29T20:01:23.862Z,60.70
2022-10-29T20:03:51.493Z,65.40
2022-10-29T20:06:18.496Z,81.60
2022-10-29T20:08:47.009Z,75.30
2022-10-29T20:11:14.740Z,76.10
2022-10-29T20:13:42.636Z,96.00
2022-10-29T20:16:16.246Z,112.80
2022-10-29T20:18:43.964Z,131.80
2022-10-29T20:21:21.271Z,143.40
2022-10-29T20:23:48.504Z,137.20
2022-10-29T20:26:15.590Z,137.70
2022-10-29T20:28:42.540Z,135.60
2022-10-29T20:31:17.554Z,141.10
2022-10-29T20:33:52.354Z,138.90
2022-10-29T20:36:20.244Z,128.00
2022-10-29T20:38:54.231Z,126.90
2022-10-29T20:41:22.675Z,131.50
2022-10-29T20:43:54.627Z,129.00
2022-10-29T20:46:22.949Z,119.90
2022-10-29T20:48:50.289Z,115.70
2022-10-29T20:51:24.382Z,132.40
2022-10-29T20:53:54.553Z,134.10
2022-10-29T20:56:24.289Z,143.40
2022-10-29T20:58:52.919Z,159.10
2022-10-29T21:01:23.511Z,157.10
2022-10-29T21:03:50.817Z,137.90
2022-10-29T21:06:18.725Z,118.80
2022-10-29T21:08:47.550Z,121.90
2022-10-29T21:11:16.727Z,136.30
2022-10-29T21:13:44.414Z,138.00
2022-10-29T21:16:17.173Z,171.60
2022-10-29T21:18:46.449Z,164.10
2022-10-29T21:21:16.991Z,137.30
2022-10-29T21:23:44.070Z,131.00
2022-10-29T21:26:13.516Z,116.70
2022-10-29T21:28:40.530Z,183.70
2022-10-29T21:31:07.407Z,193.00
2022-10-29T21:33:35.256Z,169.60
2022-10-29T21:36:02.260Z,177.50
2022-10-29T21:38:29.847Z,148.30
2022-10-29T21:40:58.238Z,240.30
2022-10-29T21:43:25.435Z,178.50
2022-10-29T21:45:52.652Z,190.00
2022-10-29T21:48:20.295Z,188.40
2022-10-29T21:50:47.420Z,157.20
2022-10-29T21:55:46.071Z,138.70
2022-10-29T21:58:12.694Z,160.60
2022-10-29T22:00:40.037Z,141.60
2022-10-29T22:03:06.956Z,110.70
2022-10-29T22:05:33.796Z,107.00
2022-10-29T22:08:00.489Z,171.80
2022-10-29T22:10:27.323Z,152.30
2022-10-29T22:12:53.802Z,145.50
2022-10-29T22:15:21.122Z,124.10
2022-10-29T22:17:49.105Z,122.30
2022-10-29T22:20:15.842Z,113.90
2022-10-29T22:22:43.317Z,110.40
2022-10-29T22:25:09.723Z,102.20
2022-10-29T22:27:36.201Z,99.70
2022-10-29T22:30:06.952Z,82.60
2022-10-29T22:32:33.954Z,104.20
2022-10-29T22:35:01.156Z,109.10
2022-10-29T22:37:28.142Z,100.50
2022-10-29T22:39:54.817Z,91.90
2022-10-29T22:42:21.251Z,86.30
2022-10-29T22:44:48.343Z,90.90
2022-10-29T22:47:15.057Z,82.30
2022-10-29T22:49:41.605Z,65.60
2022-10-29T22:52:08.435Z,87.40
2022-10-29T22:54:35.573Z,86.10
2022-10-29T22:57:02.846Z,80.30
2022-10-29T22:59:29.647Z,81.00
2022-10-29T23:01:56.583Z,94.10
2022-10-29T23:04:23.363Z,96.10
2022-10-29T23:06:50.078Z,97.30
2022-10-29T23:09:16.932Z,91.20
2022-10-29T23:11:43.345Z,80.30
2022-10-29T23:14:10.175Z,76.00
2022-10-29T23:16:36.929Z,70.50
2022-10-29T23:19:05.143Z,67.40
2022-10-29T23:21:32.796Z,76.70
2022-10-29T23:23:59.618Z,79.70
2022-10-29T23:26:27.093Z,68.50
2022-10-29T23:28:53.514Z,45.60
2022-10-29T23:31:25.840Z,48.40
2022-10-29T23:33:54.445Z,55.80
2022-10-29T23:36:22.701Z,51.80
2022-10-29T23:38:54.555Z,51.60
2022-10-29T23:41:20.921Z,55.80
2022-10-29T23:43:47.505Z,57.80
2022-10-29T23:46:14.115Z,54.60
2022-10-29T23:48:40.518Z,58.70
2022-10-29T23:51:06.907Z,54.90
2022-10-29T23:53:33.378Z,56.00
2022-10-29T23:55:59.779Z,61.30
2022-10-29T23:58:26.406Z,55.40
